TimeCST,TemperatureF,Dew PointF,Humidity,Sea Level PressureIn,VisibilityMPH,Wind Direction,Wind SpeedMPH,Gust SpeedMPH,PrecipitationIn,Events,Conditions,WindDirDegrees,DateUTC
12:53 AM,25.0,23.0,92,30.41,10.0,Calm,Calm,-,N/A,,Clear,0,2013-11-14 06:53:00
1:53 AM,25.0,23.0,92,30.39,10.0,Calm,Calm,-,N/A,,Clear,0,2013-11-14 07:53:00
2:53 AM,23.0,21.0,92,30.38,10.0,Calm,Calm,-,N/A,,Clear,0,2013-11-14 08:53:00
3:53 AM,23.0,21.0,92,30.37,10.0,Calm,Calm,-,N/A,,Clear,0,2013-11-14 09:53:00
4:53 AM,21.9,19.9,92,30.36,10.0,Calm,Calm,-,N/A,,Clear,0,2013-11-14 10:53:00
5:53 AM,21.9,19.9,92,30.36,10.0,Calm,Calm,-,N/A,,Clear,0,2013-11-14 11:53:00
6:53 AM,21.0,19.0,92,30.38,10.0,Calm,Calm,-,N/A,,Clear,0,2013-11-14 12:53:00
7:53 AM,27.0,25.0,92,30.39,10.0,Calm,Calm,-,N/A,,Clear,0,2013-11-14 13:53:00
8:53 AM,37.0,30.0,76,30.37,10.0,Calm,Calm,-,N/A,,Clear,0,2013-11-14 14:53:00
9:53 AM,44.1,24.1,45,30.35,10.0,Variable,5.8,-,N/A,,Clear,0,2013-11-14 15:53:00
10:53 AM,46.9,21.9,37,30.32,10.0,Variable,3.5,-,N/A,,Clear,0,2013-11-14 16:53:00
11:53 AM,50.0,23.0,35,30.25,10.0,Variable,3.5,-,N/A,,Clear,0,2013-11-14 17:53:00
12:53 PM,54.0,24.1,31,30.21,10.0,Variable,4.6,-,N/A,,Clear,0,2013-11-14 18:53:00
1:53 PM,55.0,23.0,29,30.19,10.0,SSE,5.8,-,N/A,,Clear,150,2013-11-14 19:53:00
2:53 PM,54.0,21.9,29,30.17,10.0,SE,9.2,-,N/A,,Clear,140,2013-11-14 20:53:00
3:53 PM,54.0,24.1,31,30.16,9.0,SSE,5.8,-,N/A,,Clear,160,2013-11-14 21:53:00
4:53 PM,51.1,28.0,41,30.16,10.0,SE,4.6,-,N/A,,Clear,140,2013-11-14 22:53:00
5:53 PM,46.0,30.9,56,30.15,10.0,Calm,Calm,-,N/A,,Clear,0,2013-11-14 23:53:00
6:53 PM,43.0,33.1,68,30.16,10.0,Calm,Calm,-,N/A,,Clear,0,2013-11-15 00:53:00
7:53 PM,45.0,34.0,65,30.14,10.0,Calm,Calm,-,N/A,,Mostly Cloudy,0,2013-11-15 01:53:00
8:53 PM,45.0,35.1,68,30.14,10.0,Calm,Calm,-,N/A,,Mostly Cloudy,0,2013-11-15 02:53:00
9:53 PM,48.0,30.0,50,30.11,10.0,Calm,Calm,-,N/A,,Mostly Cloudy,0,2013-11-15 03:53:00
10:53 PM,45.0,36.0,71,30.11,10.0,Calm,Calm,-,0.00,Rain,Light Rain,0,2013-11-15 04:53:00
11:53 PM,48.9,28.9,46,30.08,10.0,Variable,3.5,-,0.00,,Overcast,0,2013-11-15 05:53:00